Time;durP1;ratioP1;P1;durP2;ratioP2;P2;SDS_P1;SDS_P2;PMS_P1;PMS_P2;Temp;Humidity;BMP_temperature;BMP_pressure;BME280_temperature;BME280_humidity;BME280_pressure;Samples;Min_cycle;Max_cycle;Signal;HPM_P1;HPM_P2
2023/03/24 00:01:03;;;;;;;7.80;3.47;;;;;;;;;;5005344;28;20193;-78
2023/03/24 00:03:29;;;;;;;6.07;2.93;;;;;;;;;;5005385;28;20176;-85
2023/03/24 00:06:03;;;;;;;5.87;2.90;;;;;;;;;;5005867;28;20185;-78
2023/03/24 00:08:30;;;;;;;4.80;3.47;;;;;;;;;;5022903;28;20181;-77
2023/03/24 00:11:00;;;;;;;6.00;3.47;;;;;;;;;;5022510;28;20188;-78
2023/03/24 00:13:27;;;;;;;5.47;3.47;;;;;;;;;;5006706;28;20192;-78
2023/03/24 00:15:53;;;;;;;6.00;3.50;;;;;;;;;;5022444;28;20184;-78
2023/03/24 00:18:21;;;;;;;8.10;3.70;;;;;;;;;;5006198;28;20247;-78
2023/03/24 00:20:47;;;;;;;5.10;3.17;;;;;;;;;;5006093;28;20237;-84
2023/03/24 00:23:14;;;;;;;6.07;3.93;;;;;;;;;;5022356;28;20188;-84
2023/03/24 00:25:40;;;;;;;4.93;3.40;;;;;;;;;;4990506;28;20229;-84
2023/03/24 00:28:06;;;;;;;6.03;3.30;;;;;;;;;;5022229;28;20266;-84
2023/03/24 00:30:33;;;;;;;5.83;3.63;;;;;;;;;;5022378;28;20218;-84
2023/03/24 00:33:00;;;;;;;6.70;3.57;;;;;;;;;;5004410;28;20191;-84
2023/03/24 00:35:27;;;;;;;6.27;3.70;;;;;;;;;;5024329;28;20215;-78
2023/03/24 00:37:53;;;;;;;6.57;3.93;;;;;;;;;;5005177;28;20220;-80
2023/03/24 00:40:20;;;;;;;6.47;4.00;;;;;;;;;;5024328;28;20189;-80
2023/03/24 00:42:47;;;;;;;8.43;3.57;;;;;;;;;;5003857;28;20181;-80
2023/03/24 00:45:15;;;;;;;8.47;4.10;;;;;;;;;;5023705;28;20269;-78
2023/03/24 00:47:43;;;;;;;6.67;3.80;;;;;;;;;;5021346;28;20193;-79
2023/03/24 00:50:12;;;;;;;6.57;4.10;;;;;;;;;;5005187;28;20200;-79
2023/03/24 00:52:43;;;;;;;6.00;3.60;;;;;;;;;;5022153;28;20338;-78
2023/03/24 00:55:09;;;;;;;6.80;3.73;;;;;;;;;;5021451;28;20184;-79
2023/03/24 00:57:35;;;;;;;6.60;4.03;;;;;;;;;;5022189;28;20219;-78
2023/03/24 01:00:11;;;;;;;5.27;3.80;;;;;;;;;;5005840;28;20177;-79
2023/03/24 01:02:37;;;;;;;5.47;3.83;;;;;;;;;;5022618;28;20192;-83
2023/03/24 01:05:03;;;;;;;4.93;3.83;;;;;;;;;;5007085;28;20185;-83
2023/03/24 01:07:29;;;;;;;6.07;3.93;;;;;;;;;;5022455;28;20220;-83
2023/03/24 01:09:56;;;;;;;5.37;3.73;;;;;;;;;;5006211;28;20199;-77
2023/03/24 01:12:24;;;;;;;4.97;3.63;;;;;;;;;;5023062;28;20214;-77
2023/03/24 01:14:51;;;;;;;4.93;3.93;;;;;;;;;;5020799;28;20245;-79
2023/03/24 01:17:18;;;;;;;6.70;4.20;;;;;;;;;;5021577;28;20244;-77
2023/03/24 01:19:44;;;;;;;5.00;3.87;;;;;;;;;;5021264;28;20228;-77
2023/03/24 01:22:11;;;;;;;5.97;4.03;;;;;;;;;;5005717;28;20193;-77
2023/03/24 01:24:37;;;;;;;5.13;4.20;;;;;;;;;;5005014;28;20283;-77
2023/03/24 01:27:03;;;;;;;5.17;3.93;;;;;;;;;;5021817;28;20192;-77
2023/03/24 01:29:30;;;;;;;6.00;4.13;;;;;;;;;;5021257;28;20231;-77
2023/03/24 01:31:56;;;;;;;5.73;3.87;;;;;;;;;;5004656;28;20192;-76
2023/03/24 01:34:22;;;;;;;4.73;3.80;;;;;;;;;;5008315;28;20225;-77
2023/03/24 01:36:48;;;;;;;4.97;3.60;;;;;;;;;;5022930;28;20217;-77
2023/03/24 01:39:14;;;;;;;5.83;3.90;;;;;;;;;;4990189;28;20216;-77
2023/03/24 01:41:40;;;;;;;3.97;3.57;;;;;;;;;;5022209;28;20293;-77
2023/03/24 01:44:42;;;;;;;5.83;3.87;;;;;;;;;;5021343;28;20181;-77
2023/03/24 01:47:08;;;;;;;5.40;3.43;;;;;;;;;;4961326;28;20197;-77
2023/03/24 01:49:37;;;;;;;5.27;3.37;;;;;;;;;;4992372;28;20208;-77
2023/03/24 01:52:07;;;;;;;4.90;3.53;;;;;;;;;;5020963;28;20193;-77
2023/03/24 01:54:56;;;;;;;5.40;3.47;;;;;;;;;;5022016;28;20185;-77
2023/03/24 01:57:22;;;;;;;6.00;3.40;;;;;;;;;;4996535;28;20216;-77
2023/03/24 01:59:49;;;;;;;8.23;3.60;;;;;;;;;;5020665;28;20177;-77
2023/03/24 02:02:16;;;;;;;5.80;3.70;;;;;;;;;;5022554;28;20181;-83
2023/03/24 02:04:44;;;;;;;4.47;3.30;;;;;;;;;;5022491;28;20191;-84
2023/03/24 02:07:30;;;;;;;5.80;3.67;;;;;;;;;;5020976;28;20193;-84
2023/03/24 02:09:57;;;;;;;4.23;3.30;;;;;;;;;;5006376;28;20193;-84
2023/03/24 02:12:23;;;;;;;4.50;3.50;;;;;;;;;;5003641;28;20193;-84
2023/03/24 02:14:49;;;;;;;5.43;3.50;;;;;;;;;;5026385;28;20216;-83
2023/03/24 02:17:32;;;;;;;5.37;3.53;;;;;;;;;;4991914;28;20226;-77
2023/03/24 02:20:10;;;;;;;3.90;3.20;;;;;;;;;;5025375;28;20317;-77
2023/03/24 02:22:55;;;;;;;5.13;3.50;;;;;;;;;;5024035;28;20180;-77
2023/03/24 02:25:27;;;;;;;3.57;3.23;;;;;;;;;;5023648;28;20271;-77
2023/03/24 02:27:57;;;;;;;5.97;3.63;;;;;;;;;;5025886;28;20252;-77
2023/03/24 02:30:23;;;;;;;4.70;3.27;;;;;;;;;;5023702;28;20196;-77
2023/03/24 02:33:07;;;;;;;5.17;3.13;;;;;;;;;;5025042;28;20191;-79
2023/03/24 02:35:36;;;;;;;3.90;3.30;;;;;;;;;;5007812;28;20184;-79
2023/03/24 02:38:15;;;;;;;4.43;3.40;;;;;;;;;;5024439;28;20215;-79
2023/03/24 02:40:47;;;;;;;4.57;3.60;;;;;;;;;;5024458;28;20187;-79
2023/03/24 02:43:13;;;;;;;6.63;3.50;;;;;;;;;;5026488;28;20187;-79
2023/03/24 02:45:59;;;;;;;6.17;3.63;;;;;;;;;;5023950;28;20181;-79
2023/03/24 02:48:25;;;;;;;4.13;3.73;;;;;;;;;;5024277;28;20184;-79
2023/03/24 02:51:04;;;;;;;4.20;3.50;;;;;;;;;;5023990;28;20188;-79
2023/03/24 02:53:40;;;;;;;5.00;3.33;;;;;;;;;;5023856;28;20196;-79
2023/03/24 02:56:11;;;;;;;3.93;3.57;;;;;;;;;;5023945;28;20188;-79
2023/03/24 02:58:40;;;;;;;4.53;3.80;;;;;;;;;;5023847;28;20265;-79
2023/03/24 03:01:10;;;;;;;4.30;3.90;;;;;;;;;;5023909;28;20192;-79
2023/03/24 03:03:40;;;;;;;4.80;3.80;;;;;;;;;;5025274;28;20223;-80
2023/03/24 03:06:24;;;;;;;5.80;3.87;;;;;;;;;;5027666;28;20579;-84
2023/03/24 03:08:53;;;;;;;5.80;4.23;;;;;;;;;;5026531;28;20203;-84
2023/03/24 03:11:19;;;;;;;4.87;3.53;;;;;;;;;;5009905;28;20243;-84
2023/03/24 03:13:54;;;;;;;4.33;3.60;;;;;;;;;;5023714;28;20247;-84
2023/03/24 03:16:27;;;;;;;4.70;3.93;;;;;;;;;;5028093;28;20177;-84
2023/03/24 03:19:00;;;;;;;5.63;3.87;;;;;;;;;;5008342;28;20233;-84
2023/03/24 03:21:28;;;;;;;6.33;3.83;;;;;;;;;;5025155;28;20180;-84
2023/03/24 03:23:57;;;;;;;6.13;3.83;;;;;;;;;;5010763;28;20268;-78
2023/03/24 03:26:27;;;;;;;4.97;3.37;;;;;;;;;;5025000;28;20192;-85
2023/03/24 03:28:56;;;;;;;5.43;2.30;;;;;;;;;;5012515;28;20178;-84
2023/03/24 03:31:33;;;;;;;2.93;1.87;;;;;;;;;;5024369;28;20196;-84
2023/03/24 03:34:17;;;;;;;4.23;2.00;;;;;;;;;;5028546;28;20173;-85
2023/03/24 03:36:55;;;;;;;3.07;1.70;;;;;;;;;;5028924;28;20217;-85
2023/03/24 03:39:27;;;;;;;2.87;1.83;;;;;;;;;;5012166;28;20200;-84
2023/03/24 03:41:53;;;;;;;3.03;1.30;;;;;;;;;;5009263;28;20323;-84
2023/03/24 03:44:19;;;;;;;2.10;1.20;;;;;;;;;;5008385;28;20193;-84
2023/03/24 03:46:45;;;;;;;3.67;1.60;;;;;;;;;;5028423;28;20248;-84
2023/03/24 03:49:11;;;;;;;3.20;1.80;;;;;;;;;;5010693;28;20278;-85
2023/03/24 03:51:38;;;;;;;2.57;1.40;;;;;;;;;;4995353;28;20228;-84
2023/03/24 03:54:05;;;;;;;4.20;1.40;;;;;;;;;;5027444;28;20211;-86
2023/03/24 03:56:33;;;;;;;3.80;1.50;;;;;;;;;;5026449;28;20185;-80
2023/03/24 03:58:59;;;;;;;5.27;1.77;;;;;;;;;;5008646;28;20239;-79
2023/03/24 04:01:27;;;;;;;5.30;1.63;;;;;;;;;;5012181;28;20184;-79
2023/03/24 04:03:56;;;;;;;4.93;1.43;;;;;;;;;;5026209;28;20184;-81
2023/03/24 04:06:31;;;;;;;5.20;1.50;;;;;;;;;;5009626;28;20191;-81
2023/03/24 04:09:05;;;;;;;4.03;1.47;;;;;;;;;;5025821;28;20188;-81
2023/03/24 04:11:40;;;;;;;4.13;1.80;;;;;;;;;;5022173;28;20271;-81
2023/03/24 04:14:12;;;;;;;5.20;1.73;;;;;;;;;;5008742;28;20271;-80
2023/03/24 04:16:50;;;;;;;5.47;1.63;;;;;;;;;;5007325;28;20240;-79
2023/03/24 04:19:35;;;;;;;6.03;1.90;;;;;;;;;;5026274;28;20235;-79
2023/03/24 04:22:08;;;;;;;5.27;1.80;;;;;;;;;;5005509;28;20188;-79
2023/03/24 04:24:40;;;;;;;4.17;1.53;;;;;;;;;;5024888;28;20219;-79
2023/03/24 04:27:28;;;;;;;6.43;1.97;;;;;;;;;;5025390;28;20248;-79
2023/03/24 04:29:57;;;;;;;5.80;1.93;;;;;;;;;;5026160;28;20197;-79
2023/03/24 04:32:29;;;;;;;8.47;2.10;;;;;;;;;;5024573;28;20184;-79
2023/03/24 04:35:00;;;;;;;6.63;2.47;;;;;;;;;;5024326;28;20230;-79
2023/03/24 04:37:31;;;;;;;8.63;2.30;;;;;;;;;;5020636;28;20292;-79
2023/03/24 04:39:59;;;;;;;8.90;2.67;;;;;;;;;;5025214;28;20178;-79
2023/03/24 04:42:36;;;;;;;8.40;2.47;;;;;;;;;;5009059;28;20180;-79
2023/03/24 04:45:03;;;;;;;13.23;2.90;;;;;;;;;;5027592;28;20212;-79
2023/03/24 04:47:32;;;;;;;10.27;2.80;;;;;;;;;;5024052;28;20246;-79
2023/03/24 04:50:00;;;;;;;8.47;2.60;;;;;;;;;;5016624;28;20203;-80
2023/03/24 04:52:26;;;;;;;10.50;3.13;;;;;;;;;;5027775;28;20200;-79
2023/03/24 04:54:52;;;;;;;10.90;2.90;;;;;;;;;;5007210;28;20201;-85
2023/03/24 04:57:18;;;;;;;15.57;3.30;;;;;;;;;;5025834;28;20270;-85
2023/03/24 04:59:45;;;;;;;14.97;3.57;;;;;;;;;;5027308;28;20189;-85
2023/03/24 05:02:11;;;;;;;13.37;2.90;;;;;;;;;;5014970;28;20188;-85
2023/03/24 05:04:37;;;;;;;15.90;3.43;;;;;;;;;;5028247;28;20219;-81
2023/03/24 05:07:03;;;;;;;15.43;3.20;;;;;;;;;;5008154;28;20181;-81
2023/03/24 05:09:32;;;;;;;13.00;3.50;;;;;;;;;;5025986;28;20212;-81
2023/03/24 05:11:59;;;;;;;12.50;3.23;;;;;;;;;;5023245;28;20197;-81
2023/03/24 05:14:25;;;;;;;16.17;3.43;;;;;;;;;;5009741;28;20275;-79
2023/03/24 05:16:51;;;;;;;14.20;3.93;;;;;;;;;;5027115;28;20213;-79
2023/03/24 05:19:17;;;;;;;11.53;3.63;;;;;;;;;;5008894;28;20232;-79
2023/03/24 05:21:43;;;;;;;13.23;3.40;;;;;;;;;;5008560;28;20185;-79
2023/03/24 05:24:09;;;;;;;17.57;3.67;;;;;;;;;;5011397;28;20189;-79
2023/03/24 05:26:35;;;;;;;17.13;3.57;;;;;;;;;;5006490;28;20193;-82
2023/03/24 05:29:02;;;;;;;15.80;3.67;;;;;;;;;;5024933;28;20231;-81
2023/03/24 05:31:28;;;;;;;17.77;3.87;;;;;;;;;;5021068;28;20189;-79
2023/03/24 05:33:55;;;;;;;17.63;3.53;;;;;;;;;;5006232;28;20196;-81
2023/03/24 05:36:21;;;;;;;15.50;4.13;;;;;;;;;;5007922;28;20192;-80
2023/03/24 05:38:47;;;;;;;15.90;4.57;;;;;;;;;;5004928;28;20193;-80
2023/03/24 05:41:13;;;;;;;14.70;4.10;;;;;;;;;;5022083;28;20200;-80
2023/03/24 05:43:39;;;;;;;16.33;3.93;;;;;;;;;;5005040;28;20240;-81
2023/03/24 05:46:05;;;;;;;16.87;4.27;;;;;;;;;;5009131;28;20350;-81
2023/03/24 05:48:31;;;;;;;16.37;4.20;;;;;;;;;;5023050;28;20244;-81
2023/03/24 05:51:00;;;;;;;16.57;4.37;;;;;;;;;;5027672;28;20204;-80
2023/03/24 05:53:26;;;;;;;17.07;4.40;;;;;;;;;;5027763;28;20274;-85
2023/03/24 05:55:57;;;;;;;12.23;4.60;;;;;;;;;;5026191;28;20173;-84
2023/03/24 05:58:23;;;;;;;14.27;4.70;;;;;;;;;;5011727;28;20268;-84
2023/03/24 06:00:49;;;;;;;17.70;5.00;;;;;;;;;;5029480;28;20200;-84
2023/03/24 06:03:16;;;;;;;15.47;5.10;;;;;;;;;;5033905;28;20279;-84
2023/03/24 06:05:44;;;;;;;18.20;4.83;;;;;;;;;;5035952;28;20177;-85
2023/03/24 06:08:10;;;;;;;17.63;4.80;;;;;;;;;;5035521;28;20188;-83
2023/03/24 06:10:36;;;;;;;17.13;4.80;;;;;;;;;;5036081;28;20184;-83
2023/03/24 06:13:03;;;;;;;17.13;4.50;;;;;;;;;;5036270;28;20180;-83
2023/03/24 06:15:29;;;;;;;12.20;4.13;;;;;;;;;;5015888;28;20196;-84
2023/03/24 06:17:55;;;;;;;18.40;4.67;;;;;;;;;;4999729;28;20204;-84
2023/03/24 06:20:21;;;;;;;19.30;4.80;;;;;;;;;;5015974;28;20244;-84
2023/03/24 06:22:48;;;;;;;12.27;4.37;;;;;;;;;;5022036;28;20181;-84
2023/03/24 06:25:15;;;;;;;15.70;4.77;;;;;;;;;;5025220;28;20200;-85
2023/03/24 06:27:44;;;;;;;18.80;5.00;;;;;;;;;;5027362;28;20181;-82
2023/03/24 06:30:11;;;;;;;14.30;5.00;;;;;;;;;;5026907;28;20176;-81
2023/03/24 06:32:37;;;;;;;13.93;4.47;;;;;;;;;;5010135;28;20185;-82
2023/03/24 06:35:03;;;;;;;16.70;5.30;;;;;;;;;;5026407;28;20181;-79
2023/03/24 06:37:29;;;;;;;13.10;4.40;;;;;;;;;;5024565;28;20213;-79
2023/03/24 06:39:55;;;;;;;14.50;4.67;;;;;;;;;;5027119;28;20197;-79
2023/03/24 06:42:21;;;;;;;10.67;4.50;;;;;;;;;;5025860;28;20227;-79
2023/03/24 06:44:47;;;;;;;15.07;4.57;;;;;;;;;;5029154;28;20204;-85
2023/03/24 06:47:13;;;;;;;16.30;4.70;;;;;;;;;;5029621;28;20188;-85
2023/03/24 06:49:42;;;;;;;12.30;4.60;;;;;;;;;;5024254;28;20278;-85
2023/03/24 06:52:08;;;;;;;14.07;5.20;;;;;;;;;;5023714;28;20189;-85
2023/03/24 06:54:34;;;;;;;19.57;4.97;;;;;;;;;;5025546;28;20192;-85
2023/03/24 06:57:00;;;;;;;17.63;4.77;;;;;;;;;;5027443;28;20291;-86
2023/03/24 06:59:27;;;;;;;17.70;4.73;;;;;;;;;;5031976;28;20281;-82
2023/03/24 07:01:53;;;;;;;16.00;4.73;;;;;;;;;;5012513;28;20204;-80
2023/03/24 07:04:19;;;;;;;18.57;4.80;;;;;;;;;;5026717;28;20192;-81
2023/03/24 07:06:46;;;;;;;13.90;4.17;;;;;;;;;;5010239;28;20283;-80
2023/03/24 07:09:12;;;;;;;13.37;4.60;;;;;;;;;;5028735;28;20216;-81
2023/03/24 07:11:38;;;;;;;17.77;4.72;;;;;;;;;;5013501;28;20410;-82
2023/03/24 07:14:04;;;;;;;15.90;4.65;;;;;;;;;;5026895;28;20425;-82
2023/03/24 07:16:30;;;;;;;18.30;4.60;;;;;;;;;;5025202;28;20250;-82
2023/03/24 07:18:56;;;;;;;17.10;5.07;;;;;;;;;;5010419;28;20481;-81
2023/03/24 07:21:22;;;;;;;15.20;4.82;;;;;;;;;;5024302;28;20433;-81
2023/03/24 07:23:48;;;;;;;13.80;4.90;;;;;;;;;;5022905;28;20463;-81
2023/03/24 07:26:15;;;;;;;13.65;5.18;;;;;;;;;;5024829;28;20426;-81
2023/03/24 07:28:41;;;;;;;17.73;4.20;;;;;;;;;;5007403;28;20196;-82
2023/03/24 07:31:09;;;;;;;17.20;4.77;;;;;;;;;;5017272;28;20180;-81
2023/03/24 07:33:36;;;;;;;12.03;4.80;;;;;;;;;;5026142;23;20224;-84
2023/03/24 07:36:02;;;;;;;14.33;4.30;;;;;;;;;;5044627;28;20204;-84
2023/03/24 07:38:28;;;;;;;14.30;4.43;;;;;;;;;;5013779;28;20222;-85
2023/03/24 07:40:54;;;;;;;13.17;4.23;;;;;;;;;;5012794;28;20264;-85
2023/03/24 07:43:20;;;;;;;15.47;4.70;;;;;;;;;;5030432;28;20188;-85
2023/03/24 07:45:46;;;;;;;15.10;4.23;;;;;;;;;;5012284;28;20188;-84
2023/03/24 07:48:12;;;;;;;12.87;4.23;;;;;;;;;;5014719;28;20222;-85
2023/03/24 07:50:39;;;;;;;10.97;3.97;;;;;;;;;;5030625;28;20188;-79
2023/03/24 07:53:08;;;;;;;14.17;4.27;;;;;;;;;;5048595;28;20251;-79
2023/03/24 07:55:34;;;;;;;13.80;4.20;;;;;;;;;;5030509;28;20267;-79
2023/03/24 07:58:00;;;;;;;14.50;4.60;;;;;;;;;;5008616;28;20243;-78
2023/03/24 08:00:28;;;;;;;16.47;4.90;;;;;;;;;;5002455;28;20189;-79
2023/03/24 08:02:54;;;;;;;16.87;4.67;;;;;;;;;;5028985;28;20211;-78
2023/03/24 08:05:21;;;;;;;12.27;3.97;;;;;;;;;;5028119;28;20242;-76
2023/03/24 08:07:54;;;;;;;13.73;4.30;;;;;;;;;;5012474;28;20196;-76
2023/03/24 08:10:25;;;;;;;14.70;4.33;;;;;;;;;;5024575;28;20192;-76
2023/03/24 08:12:51;;;;;;;13.83;3.77;;;;;;;;;;5039617;28;20234;-76
2023/03/24 08:15:18;;;;;;;15.10;3.90;;;;;;;;;;5043398;28;20195;-75
2023/03/24 08:17:44;;;;;;;14.47;4.47;;;;;;;;;;5023727;28;20204;-76
2023/03/24 08:20:14;;;;;;;13.37;4.10;;;;;;;;;;5035405;28;20329;-75
2023/03/24 08:22:41;;;;;;;13.07;4.10;;;;;;;;;;5036663;28;20195;-79
2023/03/24 08:25:09;;;;;;;11.97;3.83;;;;;;;;;;5019777;28;20185;-79
2023/03/24 08:27:36;;;;;;;15.63;4.23;;;;;;;;;;5019803;28;20275;-79
2023/03/24 08:30:03;;;;;;;14.57;3.80;;;;;;;;;;5035956;28;20294;-79
2023/03/24 08:32:29;;;;;;;16.10;3.83;;;;;;;;;;5019475;28;20313;-79
2023/03/24 08:34:56;;;;;;;15.23;3.53;;;;;;;;;;5018444;28;20389;-80
2023/03/24 08:37:22;;;;;;;10.27;3.23;;;;;;;;;;5047501;28;20218;-80
2023/03/24 08:39:48;;;;;;;9.80;3.23;;;;;;;;;;5004009;28;20207;-82
2023/03/24 08:42:15;;;;;;;14.50;3.80;;;;;;;;;;5034450;28;20212;-82
2023/03/24 08:44:41;;;;;;;13.23;3.73;;;;;;;;;;5017123;28;20180;-82
2023/03/24 08:47:07;;;;;;;9.73;3.57;;;;;;;;;;5000500;28;20189;-83
2023/03/24 08:49:33;;;;;;;12.97;3.80;;;;;;;;;;5016992;28;20191;-82
2023/03/24 08:51:59;;;;;;;16.30;3.80;;;;;;;;;;5034084;28;20185;-82
2023/03/24 08:54:25;;;;;;;16.17;4.27;;;;;;;;;;5000869;28;20185;-83
2023/03/24 08:56:51;;;;;;;15.03;3.77;;;;;;;;;;5016486;28;20216;-76
2023/03/24 08:59:17;;;;;;;13.27;3.90;;;;;;;;;;5000907;28;20185;-76
2023/03/24 09:01:44;;;;;;;13.33;3.90;;;;;;;;;;5017005;28;20179;-76
2023/03/24 09:04:10;;;;;;;10.07;3.70;;;;;;;;;;5016681;28;20183;-76
2023/03/24 09:06:36;;;;;;;14.93;4.00;;;;;;;;;;5000112;28;20212;-76
2023/03/24 09:09:03;;;;;;;13.77;3.77;;;;;;;;;;5000460;28;20248;-76
2023/03/24 09:11:29;;;;;;;11.90;3.50;;;;;;;;;;5016523;28;20272;-76
2023/03/24 09:13:55;;;;;;;14.47;3.90;;;;;;;;;;5016672;28;20268;-83
2023/03/24 09:16:22;;;;;;;10.40;3.30;;;;;;;;;;5000068;28;20279;-83
2023/03/24 09:18:48;;;;;;;10.33;3.30;;;;;;;;;;5015832;28;20291;-83
2023/03/24 09:21:14;;;;;;;10.37;3.33;;;;;;;;;;4998688;28;20224;-83
2023/03/24 09:23:40;;;;;;;13.53;3.43;;;;;;;;;;5000597;28;20177;-82
2023/03/24 09:26:06;;;;;;;10.50;3.23;;;;;;;;;;5020084;28;20176;-83
2023/03/24 09:28:33;;;;;;;13.37;3.77;;;;;;;;;;5036547;28;20176;-83
2023/03/24 09:31:00;;;;;;;12.17;3.43;;;;;;;;;;5020189;28;20181;-83
2023/03/24 09:33:28;;;;;;;9.07;2.90;;;;;;;;;;5037369;28;20228;-83
2023/03/24 09:35:55;;;;;;;10.67;3.03;;;;;;;;;;5037518;28;20223;-82
2023/03/24 09:38:21;;;;;;;11.27;3.30;;;;;;;;;;5019868;28;20263;-83
2023/03/24 09:40:50;;;;;;;15.50;3.73;;;;;;;;;;5020089;28;20271;-83
2023/03/24 09:43:35;;;;;;;11.40;3.07;;;;;;;;;;5019860;28;20176;-83
2023/03/24 09:46:03;;;;;;;10.40;2.67;;;;;;;;;;5019691;28;20172;-83
2023/03/24 09:48:45;;;;;;;13.30;3.10;;;;;;;;;;5020072;28;20242;-83
2023/03/24 09:51:20;;;;;;;10.83;2.83;;;;;;;;;;5019794;28;20227;-83
2023/03/24 09:53:50;;;;;;;9.67;2.90;;;;;;;;;;5019641;28;20172;-83
2023/03/24 09:56:18;;;;;;;9.00;2.90;;;;;;;;;;5019692;28;20185;-83
2023/03/24 09:58:45;;;;;;;9.43;2.70;;;;;;;;;;5019463;28;20216;-83
2023/03/24 10:01:16;;;;;;;11.40;2.90;;;;;;;;;;5019459;28;20275;-83
2023/03/24 10:03:42;;;;;;;8.27;2.33;;;;;;;;;;5019656;28;20177;-76
2023/03/24 10:06:11;;;;;;;10.23;2.67;;;;;;;;;;5019288;28;20188;-76
2023/03/24 10:08:41;;;;;;;9.17;2.77;;;;;;;;;;5019369;28;20260;-76
2023/03/24 10:11:27;;;;;;;10.73;2.63;;;;;;;;;;5019498;28;20181;-76
2023/03/24 10:13:53;;;;;;;7.77;2.87;;;;;;;;;;4998957;28;20198;-76
2023/03/24 10:16:34;;;;;;;7.47;2.67;;;;;;;;;;5036408;28;20177;-76
2023/03/24 10:19:19;;;;;;;10.83;3.07;;;;;;;;;;5036804;28;20279;-76
2023/03/24 10:21:55;;;;;;;8.93;3.20;;;;;;;;;;5019038;28;20172;-77
2023/03/24 10:24:25;;;;;;;12.20;3.00;;;;;;;;;;5018767;28;20184;-77
2023/03/24 10:26:56;;;;;;;10.70;3.27;;;;;;;;;;5018802;28;20183;-77
2023/03/24 10:29:22;;;;;;;7.57;3.10;;;;;;;;;;5018965;28;20183;-77
2023/03/24 10:31:51;;;;;;;13.87;3.43;;;;;;;;;;5018885;28;20180;-77
2023/03/24 10:34:18;;;;;;;11.90;3.53;;;;;;;;;;5018657;28;20232;-77
2023/03/24 10:36:44;;;;;;;9.40;3.17;;;;;;;;;;5018521;28;20181;-77
2023/03/24 10:39:14;;;;;;;10.80;2.90;;;;;;;;;;5002610;28;20360;-76
2023/03/24 10:41:42;;;;;;;8.13;2.60;;;;;;;;;;5018717;28;20184;-76
2023/03/24 10:44:08;;;;;;;7.60;2.40;;;;;;;;;;5018709;28;20183;-76
2023/03/24 10:46:37;;;;;;;10.50;2.67;;;;;;;;;;5018621;28;20193;-76
2023/03/24 10:49:07;;;;;;;8.50;2.47;;;;;;;;;;5018652;28;20272;-77
2023/03/24 10:51:33;;;;;;;8.80;2.60;;;;;;;;;;5018456;28;20184;-76
2023/03/24 10:54:29;;;;;;;6.67;2.50;;;;;;;;;;5002265;28;20189;-77
2023/03/24 10:57:02;;;;;;;9.37;2.67;;;;;;;;;;5010109;28;20306;-77
2023/03/24 10:59:31;;;;;;;11.05;3.25;;;;;;;;;;5035326;28;20410;-77
2023/03/24 11:02:04;;;;;;;10.10;2.70;;;;;;;;;;5018921;28;20172;-77
2023/03/24 11:04:31;;;;;;;9.30;2.73;;;;;;;;;;5018520;28;20173;-77
2023/03/24 11:07:12;;;;;;;9.53;2.70;;;;;;;;;;5002084;28;20181;-77
2023/03/24 11:09:39;;;;;;;12.57;2.60;;;;;;;;;;5035703;28;20236;-77
2023/03/24 11:12:19;;;;;;;11.17;2.73;;;;;;;;;;5018061;28;20183;-77
2023/03/24 11:14:45;;;;;;;9.27;2.97;;;;;;;;;;5035618;28;20227;-77
2023/03/24 11:17:16;;;;;;;12.53;3.07;;;;;;;;;;5017852;28;20232;-77
2023/03/24 11:19:55;;;;;;;11.50;2.87;;;;;;;;;;5035561;28;20180;-77
2023/03/24 11:22:22;;;;;;;9.60;3.23;;;;;;;;;;5017887;28;20187;-77
2023/03/24 11:24:52;;;;;;;7.23;2.20;;;;;;;;;;5017790;28;20204;-77
2023/03/24 11:27:18;;;;;;;5.73;2.03;;;;;;;;;;5017890;28;20184;-76
2023/03/24 11:29:48;;;;;;;7.00;2.20;;;;;;;;;;5017695;28;20185;-76
2023/03/24 11:32:18;;;;;;;6.03;2.50;;;;;;;;;;5017885;28;20176;-76
2023/03/24 11:34:46;;;;;;;7.00;3.00;;;;;;;;;;5014223;28;20264;-77
2023/03/24 11:37:32;;;;;;;9.43;2.70;;;;;;;;;;5017134;28;20223;-76
2023/03/24 11:40:14;;;;;;;4.17;1.63;;;;;;;;;;5017484;28;20176;-76
2023/03/24 11:42:44;;;;;;;4.17;1.80;;;;;;;;;;5035160;28;20168;-76
2023/03/24 11:45:21;;;;;;;6.43;1.90;;;;;;;;;;5023764;28;20184;-76
2023/03/24 11:47:47;;;;;;;3.57;1.83;;;;;;;;;;5053406;28;20182;-76
2023/03/24 11:50:22;;;;;;;4.10;1.73;;;;;;;;;;5055181;28;20175;-76
2023/03/24 11:52:51;;;;;;;5.63;1.63;;;;;;;;;;5053874;28;20206;-76
2023/03/24 11:55:21;;;;;;;4.03;1.53;;;;;;;;;;5054918;28;20176;-76
2023/03/24 11:58:06;;;;;;;4.93;1.53;;;;;;;;;;5053640;28;20236;-76
2023/03/24 12:00:32;;;;;;;5.03;1.70;;;;;;;;;;5053919;28;20182;-80
2023/03/24 12:03:16;;;;;;;4.13;1.73;;;;;;;;;;5055145;28;20172;-80
2023/03/24 12:05:47;;;;;;;6.00;2.10;;;;;;;;;;5054778;28;20174;-80
2023/03/24 12:08:26;;;;;;;5.30;2.30;;;;;;;;;;5053596;28;20184;-80
2023/03/24 12:10:52;;;;;;;5.73;2.33;;;;;;;;;;5054395;28;20175;-81
2023/03/24 12:13:39;;;;;;;8.30;2.90;;;;;;;;;;5054385;28;20180;-80
2023/03/24 12:16:14;;;;;;;12.03;3.00;;;;;;;;;;5053220;28;20198;-76
2023/03/24 12:19:03;;;;;;;7.40;3.00;;;;;;;;;;5052895;28;20211;-76
2023/03/24 12:21:41;;;;;;;5.23;2.77;;;;;;;;;;5026246;28;20192;-76
2023/03/24 12:24:10;;;;;;;7.50;3.07;;;;;;;;;;5053356;28;20195;-76
2023/03/24 12:26:36;;;;;;;11.53;4.03;;;;;;;;;;5053004;28;20176;-76
2023/03/24 12:29:22;;;;;;;9.23;3.30;;;;;;;;;;5020011;28;20187;-76
2023/03/24 12:32:07;;;;;;;7.40;2.80;;;;;;;;;;5053007;28;20251;-76
2023/03/24 12:34:52;;;;;;;6.57;2.10;;;;;;;;;;5052957;28;20231;-79
2023/03/24 12:37:26;;;;;;;7.23;2.40;;;;;;;;;;5053043;28;20258;-79
2023/03/24 12:39:55;;;;;;;5.00;2.00;;;;;;;;;;5054022;28;20198;-79
2023/03/24 12:42:23;;;;;;;6.87;1.80;;;;;;;;;;5052775;28;20171;-79
2023/03/24 12:45:04;;;;;;;7.77;1.60;;;;;;;;;;5053016;28;20187;-79
2023/03/24 12:47:42;;;;;;;7.03;1.97;;;;;;;;;;5052665;28;20194;-78
2023/03/24 12:50:16;;;;;;;6.63;1.90;;;;;;;;;;5052812;28;20188;-76
2023/03/24 12:52:57;;;;;;;6.03;1.80;;;;;;;;;;5052360;28;20215;-76
2023/03/24 12:55:32;;;;;;;4.83;1.90;;;;;;;;;;5052500;28;20180;-76
2023/03/24 12:58:14;;;;;;;4.00;1.70;;;;;;;;;;5052147;28;20203;-76
2023/03/24 13:00:44;;;;;;;5.70;2.27;;;;;;;;;;5052761;28;20187;-76
2023/03/24 13:03:20;;;;;;;6.60;2.10;;;;;;;;;;5052450;28;20179;-76
2023/03/24 13:05:50;;;;;;;8.90;2.10;;;;;;;;;;5052503;28;20194;-76
2023/03/24 13:08:28;;;;;;;8.30;2.40;;;;;;;;;;5053803;28;20203;-76
2023/03/24 13:11:01;;;;;;;8.47;2.63;;;;;;;;;;5052631;28;20207;-76
2023/03/24 13:13:44;;;;;;;6.00;2.73;;;;;;;;;;5052755;28;20183;-76
2023/03/24 13:16:15;;;;;;;4.43;2.03;;;;;;;;;;5052378;28;20191;-76
2023/03/24 13:18:44;;;;;;;7.37;2.30;;;;;;;;;;5053769;28;20290;-76
2023/03/24 13:21:17;;;;;;;5.20;2.47;;;;;;;;;;5052754;28;20179;-76
2023/03/24 13:23:54;;;;;;;5.80;2.60;;;;;;;;;;5052786;28;20204;-80
2023/03/24 13:26:26;;;;;;;5.13;2.70;;;;;;;;;;5052981;28;20221;-79
2023/03/24 13:29:01;;;;;;;7.13;2.60;;;;;;;;;;5052578;28;20205;-80
2023/03/24 13:31:28;;;;;;;6.13;3.20;;;;;;;;;;5052737;28;20180;-79
2023/03/24 13:33:55;;;;;;;6.57;3.00;;;;;;;;;;5052406;28;20227;-80
2023/03/24 13:36:24;;;;;;;7.90;2.97;;;;;;;;;;5019627;28;20278;-79
2023/03/24 13:38:52;;;;;;;7.17;3.50;;;;;;;;;;5053562;28;20294;-79
2023/03/24 13:41:20;;;;;;;12.03;4.30;;;;;;;;;;5052458;28;20207;-76
2023/03/24 13:43:50;;;;;;;16.67;5.13;;;;;;;;;;5052643;28;20176;-76
2023/03/24 13:46:16;;;;;;;6.23;2.50;;;;;;;;;;5052615;28;20176;-76
2023/03/24 13:48:44;;;;;;;5.17;1.90;;;;;;;;;;5019477;28;20196;-76
2023/03/24 13:51:29;;;;;;;4.53;1.80;;;;;;;;;;5053323;28;20233;-76
2023/03/24 13:54:00;;;;;;;4.57;1.70;;;;;;;;;;5052517;28;20203;-76
2023/03/24 13:56:37;;;;;;;2.77;1.27;;;;;;;;;;5052311;28;20184;-84
2023/03/24 13:59:06;;;;;;;3.80;1.70;;;;;;;;;;5052858;28;20304;-84
2023/03/24 14:01:32;;;;;;;6.43;2.07;;;;;;;;;;5052607;28;20184;-83
2023/03/24 14:04:17;;;;;;;3.77;2.10;;;;;;;;;;5052147;28;20179;-84
2023/03/24 14:06:47;;;;;;;4.90;1.80;;;;;;;;;;5052244;28;20275;-84
2023/03/24 14:09:21;;;;;;;3.53;1.40;;;;;;;;;;5052643;28;20180;-85
2023/03/24 14:12:02;;;;;;;3.53;1.60;;;;;;;;;;5056086;28;20176;-84
2023/03/24 14:14:29;;;;;;;5.17;2.00;;;;;;;;;;5057244;28;20180;-78
2023/03/24 14:16:55;;;;;;;6.27;1.90;;;;;;;;;;5039496;28;20191;-78
2023/03/24 14:19:31;;;;;;;5.83;1.87;;;;;;;;;;5056410;28;20175;-78
2023/03/24 14:22:02;;;;;;;3.47;1.73;;;;;;;;;;5055745;28;20182;-79
2023/03/24 14:24:31;;;;;;;8.03;2.40;;;;;;;;;;5055803;28;20271;-78
2023/03/24 14:26:57;;;;;;;3.57;1.93;;;;;;;;;;5055920;28;20266;-78
2023/03/24 14:29:42;;;;;;;5.30;1.90;;;;;;;;;;5055573;28;20214;-84
2023/03/24 14:32:14;;;;;;;5.30;1.73;;;;;;;;;;5055613;28;20255;-85
2023/03/24 14:34:49;;;;;;;5.47;2.00;;;;;;;;;;5055510;28;20231;-85
2023/03/24 14:37:16;;;;;;;5.17;1.90;;;;;;;;;;5055807;28;20218;-85
2023/03/24 14:39:46;;;;;;;5.40;1.80;;;;;;;;;;5055423;28;20179;-85
2023/03/24 14:42:27;;;;;;;4.87;2.10;;;;;;;;;;5055320;28;20266;-85
2023/03/24 14:44:54;;;;;;;6.87;2.27;;;;;;;;;;5055247;28;20178;-85
2023/03/24 14:47:24;;;;;;;6.47;2.30;;;;;;;;;;5022804;28;20180;-79
2023/03/24 14:49:52;;;;;;;6.60;2.33;;;;;;;;;;5055283;28;20184;-78
2023/03/24 14:52:18;;;;;;;5.70;2.40;;;;;;;;;;5055985;28;20186;-78
2023/03/24 14:54:46;;;;;;;5.83;2.50;;;;;;;;;;5055030;28;20184;-78